Manderson, South Dakota
Current Conditions -  °F | °C
As of 4:52 PM on Sunday 23 Nov 2014 (Local Time) from KIEN Reporting Station
Overcast Overcast  
Wind Chill: 32°   Ceiling: 6000
Heat Index: 37°   Visibility: 10mi
Dew Point: 21°   Wind: 6mph
Humidity: 52%   Direction: 300°WNW
Pressure: 29.76"   Gusts: NA
Location:  43.24°N, 102.47°W
Report Text: KIEN 232352Z AUTO 30005KT 10SM BKN060 OVC075 03/M06 A2976 RMK AO2 SLP098 60000 T00281061 10067 20022 51015
Loading
Personal Weather Stations






























Interactive Weather Map New forecast layout! Learn more

10-Day Weather Forecast

Advertisements
Track Severe Weather on mobile